Time;durP1;ratioP1;P1;durP2;ratioP2;P2;SDS_P1;SDS_P2;PMS_P1;PMS_P2;Temp;Humidity;BMP_temperature;BMP_pressure;BME280_temperature;BME280_humidity;BME280_pressure;Samples;Min_cycle;Max_cycle;Signal;HPM_P1;HPM_P2
2024/04/11 00:00:10;;;;;;;14.50;7.70;;;;;;;17.14;71.91;99608.36;105680;1256;61227;-27
2024/04/11 00:02:39;;;;;;;10.80;7.50;;;;;;;16.95;72.20;99607.55;105666;1259;74670;-27
2024/04/11 00:05:07;;;;;;;9.80;7.70;;;;;;;16.78;72.74;99607.86;105581;1257;74212;-27
2024/04/11 00:07:34;;;;;;;8.90;6.90;;;;;;;16.55;73.70;99617.27;105516;1257;72714;-28
2024/04/11 00:10:02;;;;;;;8.10;6.50;;;;;;;16.97;72.97;99616.14;105542;1254;61368;-27
2024/04/11 00:12:29;;;;;;;8.00;6.20;;;;;;;17.43;70.58;99612.65;105634;1257;61179;-27
2024/04/11 00:14:56;;;;;;;7.30;5.90;;;;;;;17.39;70.02;99620.23;105505;1257;74607;-27
2024/04/11 00:17:25;;;;;;;12.90;7.00;;;;;;;17.25;69.93;99625.01;105615;1254;73001;-27
2024/04/11 00:19:52;;;;;;;7.60;6.90;;;;;;;16.96;71.00;99627.28;105844;1257;72619;-28
2024/04/11 00:22:19;;;;;;;11.20;5.90;;;;;;;16.64;72.58;99627.66;105471;1257;61841;-28
2024/04/11 00:24:47;;;;;;;9.50;6.30;;;;;;;17.00;71.96;99631.00;105479;1261;61224;-27
2024/04/11 00:27:13;;;;;;;15.80;6.60;;;;;;;17.32;70.48;99631.99;105541;1254;74742;-27
2024/04/11 00:29:40;;;;;;;10.40;7.40;;;;;;;17.23;70.26;99638.15;105514;1254;74508;-27
2024/04/11 00:32:07;;;;;;;13.20;7.40;;;;;;;16.98;70.87;99646.02;105499;1259;72714;-27
2024/04/11 00:34:38;;;;;;;13.10;7.50;;;;;;;16.69;72.41;99647.66;105568;1254;61411;-27
2024/04/11 00:37:05;;;;;;;8.20;5.40;;;;;;;16.39;73.84;99647.88;105275;1260;61266;-28
2024/04/11 00:39:32;;;;;;;8.00;5.50;;;;;;;16.80;72.68;99648.84;105647;1258;74521;-28
2024/04/11 00:41:59;;;;;;;8.90;5.70;;;;;;;17.17;70.79;99653.02;105632;1257;74414;-28
2024/04/11 00:44:27;;;;;;;10.60;6.40;;;;;;;17.15;70.20;99657.08;105496;1260;72508;-28
2024/04/11 00:46:54;;;;;;;10.10;6.90;;;;;;;16.87;70.90;99658.55;105285;1260;61372;-28
2024/04/11 00:49:22;;;;;;;13.30;6.70;;;;;;;16.60;72.05;99659.86;105803;1258;61598;-28
2024/04/11 00:51:50;;;;;;;6.40;4.60;;;;;;;16.29;73.49;99661.09;105494;1254;73230;-28
2024/04/11 00:54:17;;;;;;;12.50;4.80;;;;;;;16.58;72.61;99663.82;105561;1257;74330;-28
2024/04/11 00:56:44;;;;;;;8.30;5.50;;;;;;;16.89;71.22;99664.40;105684;1254;71758;-28
2024/04/11 00:59:16;;;;;;;7.40;6.10;;;;;;;16.85;70.69;99666.76;105616;1255;61352;-28
2024/04/11 01:01:45;;;;;;;7.50;5.80;;;;;;;16.62;71.69;99666.36;105692;1260;61228;-28
2024/04/11 01:04:13;;;;;;;8.70;6.10;;;;;;;16.30;72.86;99668.21;105857;1254;74672;-28
2024/04/11 01:07:08;;;;;;;10.40;5.10;;;;;;;15.90;74.75;99666.20;105587;1259;74250;-28
2024/04/11 01:09:46;;;;;;;12.00;5.30;;;;;;;16.31;73.32;99669.81;105346;1254;72710;-28
2024/04/11 01:12:16;;;;;;;8.20;5.50;;;;;;;16.26;73.54;99669.42;105469;1254;61269;-28
2024/04/11 01:14:44;;;;;;;8.20;5.90;;;;;;;16.08;73.90;99672.20;105514;1260;61292;-28
2024/04/11 01:17:16;;;;;;;6.80;5.90;;;;;;;15.93;74.44;99673.93;105515;1254;73718;-28
2024/04/11 01:19:49;;;;;;;10.30;6.40;;;;;;;15.66;75.20;99681.28;105633;1254;73470;-27
2024/04/11 01:22:18;;;;;;;7.10;5.50;;;;;;;15.59;76.39;99681.64;105492;1254;72626;-28
2024/04/11 01:24:45;;;;;;;7.60;5.40;;;;;;;15.92;74.56;99685.06;105504;1260;61355;-28
2024/04/11 01:27:14;;;;;;;9.50;5.40;;;;;;;16.10;73.44;99686.16;105492;1257;61457;-28
2024/04/11 01:29:41;;;;;;;8.70;5.40;;;;;;;15.93;73.59;99686.06;105530;1254;74657;-28
2024/04/11 01:32:08;;;;;;;8.20;5.50;;;;;;;15.78;74.16;99687.38;105544;1258;74315;-28
2024/04/11 01:34:35;;;;;;;5.10;4.30;;;;;;;15.44;75.73;99691.17;105540;1254;72599;-27
2024/04/11 01:37:02;;;;;;;8.00;6.10;;;;;;;15.75;74.79;99692.94;105474;1254;61336;-28
2024/04/11 01:39:30;;;;;;;10.10;6.10;;;;;;;15.92;73.63;99690.46;105599;1257;61287;-27
2024/04/11 01:41:57;;;;;;;9.50;6.00;;;;;;;15.80;73.95;99696.36;105515;1254;74842;-28
2024/04/11 01:44:25;;;;;;;10.00;5.40;;;;;;;15.62;74.58;99700.89;105502;1254;73207;-28
2024/04/11 01:46:52;;;;;;;7.80;5.80;;;;;;;15.36;75.48;99703.67;105468;1259;72513;-27
2024/04/11 01:49:19;;;;;;;6.40;5.50;;;;;;;15.32;76.02;99706.83;105546;1257;61689;-27
2024/04/11 01:51:46;;;;;;;9.30;6.20;;;;;;;15.51;75.33;99708.23;105493;1258;61250;-28
2024/04/11 01:54:13;;;;;;;13.90;5.90;;;;;;;15.59;74.69;99708.71;105499;1254;74402;-28
2024/04/11 01:56:40;;;;;;;9.30;5.30;;;;;;;15.42;75.24;99717.48;105561;1257;74407;-28
2024/04/11 01:59:08;;;;;;;10.10;6.50;;;;;;;15.26;75.81;99719.59;105456;1260;72499;-28
2024/04/11 02:01:37;;;;;;;5.70;4.10;;;;;;;15.05;76.63;99727.90;105489;1254;61882;-28
2024/04/11 02:04:05;;;;;;;11.10;5.20;;;;;;;15.42;75.43;99729.88;105633;1258;61240;-28
2024/04/11 02:06:36;;;;;;;10.40;5.30;;;;;;;15.47;75.05;99735.92;105673;1254;74664;-28
2024/04/11 02:09:09;;;;;;;9.20;5.50;;;;;;;15.48;74.50;99742.66;105687;1254;73282;-27
2024/04/11 02:11:37;;;;;;;;;;;;;;;15.29;75.24;99745.61;105502;1255;72588;-27
2024/04/11 02:14:04;;;;;;;7.90;3.50;;;;;;;14.98;76.80;99745.63;105527;1260;61752;-27
2024/04/11 02:16:36;;;;;;;8.50;5.10;;;;;;;15.38;74.95;99745.23;105560;1255;61240;-28
2024/04/11 02:19:06;;;;;;;4.90;4.00;;;;;;;15.70;73.43;99746.08;105653;1254;74678;-27
2024/04/11 02:21:34;;;;;;;5.10;3.90;;;;;;;15.44;73.80;99747.55;105281;1260;74561;-27
2024/04/11 02:24:01;;;;;;;8.10;4.90;;;;;;;15.27;74.44;99752.89;105598;1254;72284;-27
2024/04/11 02:26:29;;;;;;;4.30;2.70;;;;;;;15.20;74.38;99756.01;105483;1254;61377;-27
2024/04/11 02:28:56;;;;;;;7.40;3.90;;;;;;;15.31;74.52;99756.54;105570;1257;61893;-27
2024/04/11 02:31:23;;;;;;;4.70;3.50;;;;;;;15.51;73.29;99759.68;105579;1254;74494;-27
2024/04/11 02:33:49;;;;;;;6.30;3.60;;;;;;;15.23;73.61;99757.30;105522;1257;74160;-27
2024/04/11 02:36:18;;;;;;;6.90;3.70;;;;;;;15.07;74.19;99760.28;105526;1254;72475;-27
2024/04/11 02:38:46;;;;;;;6.40;3.60;;;;;;;14.90;74.46;99760.34;105496;1254;61361;-27
2024/04/11 02:41:13;;;;;;;6.10;3.90;;;;;;;14.73;75.49;99759.05;105486;1260;61324;-27
2024/04/11 02:43:40;;;;;;;3.90;3.50;;;;;;;15.10;74.02;99765.20;105544;1254;74518;-27
2024/04/11 02:46:15;;;;;;;4.70;3.80;;;;;;;15.17;73.25;99770.70;105501;1254;74162;-27
2024/04/11 02:48:45;;;;;;;3.60;2.70;;;;;;;15.10;73.03;99769.29;105501;1253;72641;-27
2024/04/11 02:51:13;;;;;;;6.00;3.40;;;;;;;14.73;74.59;99765.89;105313;1254;61351;-27
2024/04/11 02:53:41;;;;;;;5.80;3.40;;;;;;;14.56;75.26;99778.84;105484;1260;61193;-27
2024/04/11 02:56:08;;;;;;;5.70;3.30;;;;;;;14.79;74.59;99780.87;105489;1254;73504;-27
2024/04/11 02:58:36;;;;;;;4.00;2.90;;;;;;;15.13;72.73;99782.27;105539;1254;75280;-27
2024/04/11 03:01:06;;;;;;;3.70;3.20;;;;;;;15.17;72.41;99782.61;105497;1254;71465;-27
2024/04/11 03:03:37;;;;;;;3.80;3.30;;;;;;;14.81;73.40;99781.09;105247;1254;61418;-27
2024/04/11 03:06:18;;;;;;;4.90;3.50;;;;;;;14.49;74.59;99781.30;105542;1257;61209;-27
2024/04/11 03:08:46;;;;;;;3.80;2.30;;;;;;;14.52;74.60;99781.97;105394;1255;74669;-27
2024/04/11 03:11:13;;;;;;;5.40;2.90;;;;;;;14.83;72.72;99782.77;105237;1254;74456;-27
2024/04/11 03:13:40;;;;;;;4.90;2.40;;;;;;;14.90;72.07;99787.77;105565;1254;72732;-27
2024/04/11 03:16:11;;;;;;;4.10;2.50;;;;;;;14.85;71.58;99788.63;105566;1254;61330;-27
2024/04/11 03:18:39;;;;;;;6.00;2.90;;;;;;;14.75;71.27;99794.52;105547;1257;61311;-27
2024/04/11 03:21:07;;;;;;;4.30;2.50;;;;;;;14.47;72.08;99797.89;105526;1257;75116;-27
2024/04/11 03:23:34;;;;;;;2.30;2.10;;;;;;;14.62;71.95;99801.21;105527;1257;74117;-27
2024/04/11 03:26:01;;;;;;;4.10;2.50;;;;;;;15.00;69.93;99802.84;105607;1254;72673;-27
2024/04/11 03:28:28;;;;;;;3.40;2.30;;;;;;;14.93;70.21;99808.18;105510;1254;61311;-27
2024/04/11 03:31:05;;;;;;;4.60;2.80;;;;;;;14.80;70.29;99809.48;105592;1258;61224;-27
2024/04/11 03:33:32;;;;;;;7.00;2.30;;;;;;;14.62;70.94;99811.17;105511;1258;74580;-27
2024/04/11 03:36:01;;;;;;;4.10;2.20;;;;;;;14.34;72.18;99820.81;105483;1260;74361;-27
2024/04/11 03:38:28;;;;;;;3.20;1.70;;;;;;;14.56;71.26;99821.80;105510;1259;72771;-27
2024/04/11 03:41:02;;;;;;;3.50;2.30;;;;;;;14.95;69.49;99821.64;105594;1254;61669;-27
2024/04/11 03:43:29;;;;;;;5.00;2.10;;;;;;;14.82;69.28;99829.42;105359;1253;61327;-27
2024/04/11 03:46:09;;;;;;;4.20;2.10;;;;;;;14.67;69.60;99832.72;105605;1254;74667;-27
2024/04/11 03:48:36;;;;;;;6.30;2.20;;;;;;;14.57;68.90;99837.05;105561;1254;74249;-27
2024/04/11 03:51:19;;;;;;;4.00;2.10;;;;;;;14.36;69.34;99837.48;105609;1254;72599;-27
2024/04/11 03:53:47;;;;;;;4.80;1.50;;;;;;;14.32;69.56;99841.98;105598;1260;61638;-27
2024/04/11 03:56:14;;;;;;;3.40;1.20;;;;;;;14.83;66.72;99843.30;105461;1253;61282;-27
2024/04/11 03:58:41;;;;;;;2.40;1.40;;;;;;;14.98;65.55;99848.78;105542;1254;74335;-27
2024/04/11 04:01:12;;;;;;;2.10;1.40;;;;;;;14.77;65.36;99852.39;105638;1257;74163;-27
2024/04/11 04:03:40;;;;;;;4.60;1.90;;;;;;;14.65;65.37;99856.00;105493;1254;72624;-28
2024/04/11 04:06:08;;;;;;;3.60;1.80;;;;;;;14.65;65.26;99856.74;105176;1254;61250;-27
2024/04/11 04:08:35;;;;;;;4.10;1.60;;;;;;;14.35;65.99;99861.14;105649;1257;61191;-27
2024/04/11 04:11:03;;;;;;;2.10;1.30;;;;;;;14.15;66.31;99854.08;105754;1254;73599;-27
2024/04/11 04:13:30;;;;;;;2.10;1.30;;;;;;;14.55;65.31;99858.61;105703;1257;74336;-27
2024/04/11 04:15:58;;;;;;;5.40;1.90;;;;;;;14.84;62.84;99856.36;105528;1257;71743;-27
2024/04/11 04:18:25;;;;;;;6.90;1.60;;;;;;;14.72;63.33;99869.19;105695;1254;61366;-27
2024/04/11 04:20:56;;;;;;;4.50;1.50;;;;;;;14.30;64.62;99871.48;105753;1257;61259;-27
2024/04/11 04:23:23;;;;;;;5.60;2.00;;;;;;;14.09;64.97;99874.14;105583;1254;74625;-27
2024/04/11 04:26:09;;;;;;;3.70;1.50;;;;;;;13.98;65.48;99876.95;105760;1257;74330;-27
2024/04/11 04:28:39;;;;;;;4.00;1.50;;;;;;;14.11;65.14;99881.09;105532;1253;72605;-27
2024/04/11 04:31:23;;;;;;;1.50;1.00;;;;;;;14.05;65.68;99876.16;105496;1260;61417;-27
2024/04/11 04:33:51;;;;;;;3.70;1.40;;;;;;;14.62;63.25;99881.91;105357;1259;61317;-27
2024/04/11 04:36:19;;;;;;;2.50;1.30;;;;;;;14.77;63.00;99882.45;105600;1253;73532;-27
2024/04/11 04:38:49;;;;;;;3.80;1.40;;;;;;;14.87;62.50;99877.94;105708;1259;74483;-27
2024/04/11 04:41:17;;;;;;;3.50;1.20;;;;;;;14.89;62.21;99881.93;105804;1254;71026;-27
2024/04/11 04:43:45;;;;;;;2.40;1.30;;;;;;;14.84;61.66;99883.00;105657;1254;61436;-27
2024/04/11 04:46:13;;;;;;;4.50;1.60;;;;;;;14.86;61.64;99884.27;105584;1259;61230;-27
2024/04/11 04:48:40;;;;;;;2.40;1.20;;;;;;;14.51;62.49;99880.29;105528;1254;74731;-27
2024/04/11 04:51:08;;;;;;;3.90;1.50;;;;;;;14.46;62.69;99882.05;105529;1254;74795;-27
2024/04/11 04:53:37;;;;;;;2.10;1.40;;;;;;;14.52;62.45;99879.60;105578;1254;72403;-29
2024/04/11 04:56:05;;;;;;;3.40;1.10;;;;;;;14.43;63.05;99882.81;105707;1253;61918;-28
2024/04/11 04:58:36;;;;;;;1.90;1.20;;;;;;;14.90;61.02;99882.19;105475;1254;61254;-28
2024/04/11 05:01:04;;;;;;;3.10;0.90;;;;;;;15.27;59.27;99882.89;105807;1254;75029;-28
2024/04/11 05:03:34;;;;;;;3.60;1.40;;;;;;;14.97;59.57;99885.42;105810;1254;72833;-28
2024/04/11 05:06:04;;;;;;;2.50;1.10;;;;;;;15.12;59.13;99888.70;105673;1254;72614;-27
2024/04/11 05:08:34;;;;;;;2.30;1.30;;;;;;;14.96;58.73;99888.86;105771;1254;61852;-28
2024/04/11 05:11:10;;;;;;;1.80;1.10;;;;;;;14.84;59.71;99896.67;105719;1257;61189;-28
2024/04/11 05:13:42;;;;;;;2.00;1.10;;;;;;;14.77;59.26;99900.05;105551;1254;74776;-29
2024/04/11 05:16:18;;;;;;;4.40;1.80;;;;;;;14.77;59.15;99904.45;105614;1254;73188;-27
2024/04/11 05:18:46;;;;;;;2.30;1.00;;;;;;;14.99;58.23;99903.45;105644;1254;72412;-28
2024/04/11 05:21:19;;;;;;;1.70;1.10;;;;;;;14.84;58.50;99904.70;105486;1257;61548;-28
2024/04/11 05:23:46;;;;;;;2.80;1.00;;;;;;;14.74;58.62;99909.05;105491;1258;61214;-28
2024/04/11 05:26:14;;;;;;;2.10;1.10;;;;;;;14.89;58.77;99914.45;105506;1254;74573;-28
2024/04/11 05:28:45;;;;;;;1.60;1.00;;;;;;;14.92;58.06;99915.91;105570;1253;74114;-27
2024/04/11 05:31:16;;;;;;;3.40;1.30;;;;;;;14.92;57.83;99921.71;105430;1254;72639;-28
2024/04/11 05:33:44;;;;;;;3.80;1.20;;;;;;;14.63;57.69;99916.29;105640;1254;61269;-26
2024/04/11 05:36:18;;;;;;;2.50;1.20;;;;;;;14.97;57.56;99927.36;105572;1258;61221;-26
2024/04/11 05:38:46;;;;;;;2.20;1.20;;;;;;;14.77;56.81;99929.77;105478;1254;74584;-27
2024/04/11 05:41:14;;;;;;;1.40;1.00;;;;;;;14.66;56.74;99936.61;105537;1256;74160;-27
2024/04/11 05:43:47;;;;;;;2.60;1.10;;;;;;;14.63;56.47;99935.88;105511;1254;72357;-26
2024/04/11 05:46:15;;;;;;;;;;;;;;;14.68;55.54;99933.67;105562;1253;61220;-27
2024/04/11 05:48:42;;;;;;;4.00;1.20;;;;;;;14.37;56.14;99936.73;105649;1257;61248;-27
2024/04/11 05:51:10;;;;;;;2.90;1.10;;;;;;;14.48;55.72;99940.52;105565;1254;74907;-27
2024/04/11 05:53:38;;;;;;;3.20;1.20;;;;;;;14.42;55.32;99940.03;105534;1254;74290;-27
2024/04/11 05:56:12;;;;;;;2.20;1.10;;;;;;;14.41;55.22;99942.40;105600;1254;72652;-27
2024/04/11 05:58:40;;;;;;;2.30;0.70;;;;;;;14.40;55.34;99949.15;105557;1254;61248;-27
2024/04/11 06:01:09;;;;;;;5.30;1.30;;;;;;;14.41;54.78;99950.91;105550;1259;61869;-27
2024/04/11 06:03:40;;;;;;;9.30;1.20;;;;;;;14.42;55.37;99951.20;105620;1254;74131;-28
2024/04/11 06:06:10;;;;;;;1.40;1.10;;;;;;;14.54;54.80;99951.98;105543;1257;74783;-27
2024/04/11 06:08:37;;;;;;;2.20;1.10;;;;;;;14.61;53.87;99954.04;105508;1254;73886;-27
2024/04/11 06:11:06;;;;;;;7.30;1.50;;;;;;;14.47;54.59;99959.89;105488;1254;61349;-27
2024/04/11 06:13:33;;;;;;;1.50;0.90;;;;;;;14.89;54.02;99960.79;105548;1257;61303;-27
2024/04/11 06:16:01;;;;;;;2.90;1.10;;;;;;;14.72;53.06;99964.65;105523;1254;75822;-27
2024/04/11 06:18:30;;;;;;;3.70;1.00;;;;;;;14.65;53.76;99965.55;105541;1256;74794;-27
2024/04/11 06:20:57;;;;;;;1.70;1.40;;;;;;;14.92;53.03;99964.91;105635;1254;72040;-27
2024/04/11 06:23:26;;;;;;;1.80;1.00;;;;;;;14.85;52.47;99969.30;105687;1253;61221;-27
2024/04/11 06:25:54;;;;;;;2.00;1.10;;;;;;;14.98;52.64;99969.61;105599;1259;61737;-28
2024/04/11 06:28:21;;;;;;;3.40;1.20;;;;;;;15.28;52.28;99969.67;105527;1254;74372;-28
2024/04/11 06:30:48;;;;;;;2.80;0.80;;;;;;;15.47;51.92;99961.20;105510;1253;73642;-28
2024/04/11 06:33:16;;;;;;;4.40;1.10;;;;;;;15.78;51.38;99967.16;105476;1254;71433;-28
2024/04/11 06:35:46;;;;;;;3.10;1.30;;;;;;;15.60;51.06;99967.78;105500;1254;61445;-27
2024/04/11 06:38:14;;;;;;;4.30;1.50;;;;;;;15.76;50.72;99971.19;105473;1254;61429;-28
2024/04/11 06:40:44;;;;;;;3.00;1.10;;;;;;;15.54;51.01;99973.63;105393;1254;74913;-28
2024/04/11 06:43:16;;;;;;;2.00;1.10;;;;;;;15.59;50.69;99975.55;105517;1254;74580;-28
2024/04/11 06:45:44;;;;;;;3.00;0.90;;;;;;;15.53;50.95;99976.77;105521;1254;72686;-28
2024/04/11 06:48:12;;;;;;;1.40;1.00;;;;;;;15.44;51.00;99981.27;105488;1260;63028;-28
2024/04/11 06:50:39;;;;;;;2.00;0.80;;;;;;;15.60;50.55;99979.89;105521;1254;61292;-28
2024/04/11 06:53:08;;;;;;;1.70;0.90;;;;;;;15.72;49.48;99982.87;105676;1253;74823;-28
2024/04/11 06:55:35;;;;;;;1.20;1.10;;;;;;;15.76;49.75;99986.71;105616;1253;73743;-28
2024/04/11 06:58:02;;;;;;;2.50;1.40;;;;;;;15.77;49.46;99994.98;105499;1254;72776;-26
2024/04/11 07:00:36;;;;;;;4.40;1.70;;;;;;;15.88;48.83;99997.10;105490;1254;61355;-27
2024/04/11 07:03:26;;;;;;;1.60;1.30;;;;;;;15.99;49.45;99996.45;105516;1254;61841;-27
2024/04/11 07:05:56;;;;;;;7.00;1.20;;;;;;;16.09;49.16;99997.17;105696;1254;74230;-27
2024/04/11 07:08:33;;;;;;;2.30;1.20;;;;;;;16.05;48.81;100000.16;105682;1254;75825;-27
2024/04/11 07:11:23;;;;;;;3.40;1.40;;;;;;;16.33;48.64;99997.46;105791;1254;72796;-27
2024/04/11 07:13:54;;;;;;;1.10;0.90;;;;;;;16.94;48.02;100001.36;105676;1254;61266;-27
2024/04/11 07:16:26;;;;;;;3.60;1.40;;;;;;;16.77;47.21;100006.63;105591;1254;61700;-28
2024/04/11 07:18:56;;;;;;;3.10;1.20;;;;;;;16.57;47.67;100008.58;105489;1255;73728;-28
2024/04/11 07:21:29;;;;;;;2.50;1.10;;;;;;;16.77;47.49;100006.83;105530;1254;74630;-26
2024/04/11 07:24:00;;;;;;;2.20;1.30;;;;;;;16.90;47.69;100004.39;105496;1254;74314;-27
2024/04/11 07:26:29;;;;;;;4.90;1.20;;;;;;;16.64;47.37;100004.34;105493;1254;61321;-27
2024/04/11 07:28:59;;;;;;;3.40;1.00;;;;;;;16.70;47.11;100005.67;105548;1253;61343;-27
2024/04/11 07:31:27;;;;;;;4.00;0.90;;;;;;;16.56;46.98;100006.64;105618;1255;73644;-27
2024/04/11 07:33:55;;;;;;;3.70;1.20;;;;;;;16.64;47.22;100009.20;105658;1254;74623;-28
2024/04/11 07:36:25;;;;;;;4.00;1.50;;;;;;;16.59;47.60;100011.27;105598;1258;74027;-27
2024/04/11 07:38:53;;;;;;;2.80;1.20;;;;;;;16.68;47.14;100011.48;105632;1254;61387;-27
2024/04/11 07:41:23;;;;;;;1.50;1.00;;;;;;;17.02;46.00;100006.49;105721;1257;61703;-27
2024/04/11 07:43:51;;;;;;;2.10;1.10;;;;;;;17.33;45.75;100000.39;105714;1253;74627;-27
2024/04/11 07:46:18;;;;;;;2.50;1.00;;;;;;;17.07;46.12;100007.38;105504;1254;75794;-27
2024/04/11 07:48:51;;;;;;;2.40;1.10;;;;;;;17.44;46.43;100010.92;105208;1260;74026;-27
2024/04/11 07:51:19;;;;;;;2.40;1.10;;;;;;;17.31;45.04;100007.05;105538;1254;61308;-27
2024/04/11 07:53:47;;;;;;;1.10;1.00;;;;;;;17.24;45.60;100008.22;105653;1257;61722;-27
2024/04/11 07:56:39;;;;;;;4.10;1.10;;;;;;;17.22;45.65;100016.02;105540;1254;75974;-27
2024/04/11 07:59:07;;;;;;;3.30;1.20;;;;;;;17.82;44.53;100011.96;105619;1254;73505;-27
2024/04/11 08:01:36;;;;;;;1.50;1.00;;;;;;;17.43;44.88;100015.62;105624;1257;71386;-27
2024/04/11 08:04:05;;;;;;;4.30;1.30;;;;;;;17.43;44.53;100018.23;105465;1254;61771;-27
2024/04/11 08:06:35;;;;;;;3.70;1.10;;;;;;;17.56;44.27;100023.67;105458;1253;61958;-28
2024/04/11 08:09:08;;;;;;;5.30;1.00;;;;;;;18.06;43.78;100022.21;105666;1254;74740;-27
2024/04/11 08:11:35;;;;;;;1.90;1.20;;;;;;;17.88;43.52;100020.27;105621;1254;73270;-27
2024/04/11 08:14:04;;;;;;;2.70;1.20;;;;;;;18.14;43.53;100022.06;105517;1254;74379;-27
2024/04/11 08:16:34;;;;;;;2.50;1.50;;;;;;;18.07;43.40;100007.95;105578;1257;61225;-27
2024/04/11 08:19:02;;;;;;;3.70;1.40;;;;;;;17.75;44.00;100019.11;105691;1257;61199;-28
2024/04/11 08:21:30;;;;;;;2.00;1.10;;;;;;;18.29;43.77;100015.44;105620;1254;74738;-28
2024/04/11 08:24:00;;;;;;;2.10;1.20;;;;;;;18.17;42.86;100019.84;105335;1254;74511;-27
2024/04/11 08:26:29;;;;;;;1.60;0.80;;;;;;;18.14;43.11;100014.30;105538;1254;72511;-27
2024/04/11 08:28:56;;;;;;;2.60;1.00;;;;;;;18.32;42.00;100013.02;105474;1254;61683;-27
2024/04/11 08:31:27;;;;;;;0.80;0.80;;;;;;;18.50;42.13;100015.84;105530;1257;61693;-27
2024/04/11 08:33:58;;;;;;;1.70;0.80;;;;;;;18.79;41.03;100021.95;105420;1253;75535;-27
2024/04/11 08:36:28;;;;;;;2.70;1.50;;;;;;;18.91;41.68;100026.21;105460;1260;73731;-27
2024/04/11 08:38:59;;;;;;;2.20;1.10;;;;;;;18.91;41.29;100025.59;105525;1254;72982;-27
2024/04/11 08:41:26;;;;;;;4.90;1.30;;;;;;;19.13;40.73;100026.66;105525;1259;61403;-28
2024/04/11 08:43:56;;;;;;;2.50;1.00;;;;;;;19.11;39.73;100024.19;105468;1259;61908;-27
2024/04/11 08:46:27;;;;;;;1.60;0.90;;;;;;;19.32;40.41;100027.35;105511;1257;74704;-27
2024/04/11 08:48:54;;;;;;;1.60;0.80;;;;;;;19.71;39.17;100027.23;105686;1258;74320;-27
2024/04/11 08:51:22;;;;;;;3.90;1.00;;;;;;;19.85;39.44;100029.70;105571;1254;73856;-26
2024/04/11 08:53:58;;;;;;;6.50;1.30;;;;;;;19.79;38.10;100037.74;105534;1254;61288;-26
2024/04/11 08:56:31;;;;;;;2.30;0.90;;;;;;;19.86;38.83;100039.41;105201;1258;61849;-27
2024/04/11 08:58:59;;;;;;;2.00;1.10;;;;;;;19.93;37.62;100036.78;105557;1254;73181;-27
2024/04/11 09:01:27;;;;;;;2.50;0.90;;;;;;;20.05;39.07;100034.48;105555;1253;75156;-26
2024/04/11 09:03:54;;;;;;;2.90;1.20;;;;;;;20.50;38.55;100035.20;105490;1254;71790;-27
2024/04/11 09:06:26;;;;;;;0.50;0.50;;;;;;;20.59;38.31;100025.23;105527;1254;61720;-26
2024/04/11 09:08:54;;;;;;;1.50;1.10;;;;;;;20.48;38.17;100030.48;101979;1254;4733407;-26
2024/04/11 09:11:22;;;;;;;2.40;1.00;;;;;;;20.67;38.20;100031.23;105629;1254;74320;-26
2024/04/11 09:13:53;;;;;;;2.10;1.00;;;;;;;20.41;37.76;100035.05;105463;1254;71435;-26
2024/04/11 09:16:26;;;;;;;2.10;1.10;;;;;;;20.45;37.58;100039.83;105644;1254;61326;-26
2024/04/11 09:19:10;;;;;;;1.40;0.80;;;;;;;20.89;37.35;100035.45;105524;1253;61347;-26
2024/04/11 09:21:55;;;;;;;3.00;1.00;;;;;;;20.90;37.48;100042.73;105583;1254;73873;-26
2024/04/11 09:24:23;;;;;;;2.90;1.30;;;;;;;20.67;36.19;100038.60;105368;1254;74641;-26
2024/04/11 09:26:53;;;;;;;0.70;0.70;;;;;;;20.41;36.67;100044.39;105499;1254;72873;-26
2024/04/11 09:29:20;;;;;;;2.40;1.20;;;;;;;20.74;37.04;100041.08;105258;1254;61749;-26
2024/04/11 09:31:53;;;;;;;2.30;0.70;;;;;;;20.72;36.58;100041.84;105438;1259;61272;-26
2024/04/11 09:34:20;;;;;;;1.60;0.80;;;;;;;20.50;35.79;100047.04;105379;1254;75977;-26
2024/04/11 09:36:48;;;;;;;2.20;1.00;;;;;;;20.62;35.92;100045.15;105533;1254;74860;-27
2024/04/11 09:39:45;;;;;;;1.70;0.90;;;;;;;20.69;35.70;100047.23;105507;1258;72314;-27
2024/04/11 09:42:12;;;;;;;;;;;;;;;20.93;35.43;100039.70;105430;1261;61334;-27
2024/04/11 09:44:47;;;;;;;0.50;0.50;;;;;;;20.64;35.73;100042.33;105729;1259;61368;-26
2024/04/11 09:47:48;;;;;;;1.80;1.20;;;;;;;20.65;35.42;100042.77;105529;1254;74818;-27
2024/04/11 09:50:09;;;;;;;0.60;0.50;;;;;;;20.89;35.81;100044.97;105674;1254;74722;-27
2024/04/11 09:52:41;;;;;;;2.60;1.30;;;;;;;21.45;35.09;100044.09;105394;1254;72827;-27
2024/04/11 09:55:09;;;;;;;2.40;1.10;;;;;;;21.25;35.20;100043.10;105230;1254;61374;-27
2024/04/11 09:57:46;;;;;;;1.80;1.10;;;;;;;21.09;35.06;100043.61;105486;1255;61289;-27
2024/04/11 10:00:48;;;;;;;3.50;1.40;;;;;;;20.82;34.30;100047.25;105597;1259;73633;-27
2024/04/11 10:03:07;;;;;;;2.40;0.90;;;;;;;21.03;34.62;100051.65;105640;1254;74485;-27
2024/04/11 10:05:38;;;;;;;1.10;0.90;;;;;;;20.85;34.73;100052.59;105500;1257;73829;-27
2024/04/11 10:08:16;;;;;;;4.50;1.40;;;;;;;20.50;34.70;100057.18;105512;1254;61205;-27
2024/04/11 10:10:58;;;;;;;1.40;0.60;;;;;;;20.75;33.68;100063.23;105667;1257;61749;-27
2024/04/11 10:13:25;;;;;;;3.80;1.00;;;;;;;20.93;34.35;100062.66;105506;1254;73559;-27
2024/04/11 10:16:14;;;;;;;3.20;1.30;;;;;;;21.53;35.86;100066.67;105635;1255;75876;-27
2024/04/11 10:18:51;;;;;;;3.00;0.80;;;;;;;21.16;37.46;100065.30;105347;1254;71815;-27
2024/04/11 10:21:27;;;;;;;4.00;1.20;;;;;;;21.62;36.70;100065.88;105532;1255;61641;-27
2024/04/11 10:24:14;;;;;;;4.40;1.10;;;;;;;20.69;37.45;100074.59;105446;1260;61400;-27
2024/04/11 10:26:47;;;;;;;4.70;1.40;;;;;;;20.45;37.54;100075.20;105552;1254;74869;-27
2024/04/11 10:29:18;;;;;;;1.80;1.00;;;;;;;20.60;37.91;100054.05;105631;1256;74350;-27
2024/04/11 10:31:47;;;;;;;2.40;1.20;;;;;;;20.05;39.26;100071.80;105506;1254;73998;-26
2024/04/11 10:36:17;;;;;;;3.00;1.10;;;;;;;20.64;38.23;100059.96;102599;1293;601148;-26
2024/04/11 10:38:45;;;;;;;2.50;0.90;;;;;;;20.44;37.54;100068.27;105028;1269;61174;-26
2024/04/11 10:41:19;;;;;;;1.80;0.80;;;;;;;20.73;38.18;100076.67;104855;1272;62383;-27
2024/04/11 10:43:49;;;;;;;1.90;0.90;;;;;;;21.07;37.60;100077.41;104879;1267;73522;-27
2024/04/11 10:46:20;;;;;;;1.70;0.90;;;;;;;21.16;35.31;100087.18;104805;1267;73960;-28
2024/04/11 10:48:49;;;;;;;8.00;1.20;;;;;;;21.20;36.74;100082.91;101386;1269;4736029;-28
2024/04/11 10:51:19;;;;;;;2.80;1.30;;;;;;;20.76;36.28;100079.98;104886;1263;61143;-28
2024/04/11 10:54:08;;;;;;;4.90;0.80;;;;;;;20.68;36.88;100081.21;105604;1260;61061;-27
2024/04/11 10:56:41;;;;;;;1.00;0.70;;;;;;;20.83;37.25;100085.28;105484;1261;72126;-28
2024/04/11 10:59:22;;;;;;;2.30;1.10;;;;;;;20.58;36.26;100090.39;105538;1262;73669;-26
2024/04/11 11:01:57;;;;;;;3.20;1.10;;;;;;;20.96;36.15;100090.73;105541;1258;71855;-27
2024/04/11 11:04:33;;;;;;;2.70;1.20;;;;;;;21.26;36.03;100083.81;105506;1257;61093;-27
2024/04/11 11:07:10;;;;;;;2.90;0.90;;;;;;;21.77;36.07;100088.27;105538;1257;61115;-27
2024/04/11 11:09:45;;;;;;;7.20;1.20;;;;;;;21.31;37.00;100081.73;105525;1263;74218;-26
2024/04/11 11:12:15;;;;;;;1.70;0.80;;;;;;;20.96;37.92;100086.33;105519;1263;74582;-27
2024/04/11 11:14:46;;;;;;;2.90;1.20;;;;;;;21.24;36.90;100081.54;105543;1258;73937;-26
2024/04/11 11:17:17;;;;;;;3.50;1.10;;;;;;;21.56;36.56;100083.03;105316;1258;61736;-26
2024/04/11 11:19:49;;;;;;;0.90;0.70;;;;;;;21.82;36.55;100082.80;105516;1257;61239;-26
2024/04/11 11:22:33;;;;;;;1.50;0.80;;;;;;;21.64;35.92;100068.86;105510;1263;72861;-26
2024/04/11 11:25:03;;;;;;;3.30;0.90;;;;;;;21.69;37.25;100081.55;105264;1257;73653;-27
2024/04/11 11:27:32;;;;;;;3.40;1.30;;;;;;;21.64;35.28;100075.21;105565;1261;73825;-27
2024/04/11 11:30:05;;;;;;;2.00;0.80;;;;;;;21.55;36.14;100080.48;105543;1263;61185;-27
2024/04/11 11:32:35;;;;;;;5.40;1.20;;;;;;;21.32;36.98;100074.50;105222;1257;61159;-27
2024/04/11 11:35:05;;;;;;;2.10;0.90;;;;;;;20.61;36.98;100072.42;105116;1264;74191;-27
2024/04/11 11:37:33;;;;;;;6.10;0.90;;;;;;;20.79;36.96;100072.47;105358;1261;73205;-27